sensor_id;sensor_type;location;lat;lon;timestamp;P1;durP1;ratioP1;P2;durP2;ratioP2
577;SDS011;275;48.492;9.214;2023-08-20T00:01:27;11.00;;;10.00;;
577;SDS011;275;48.492;9.214;2023-08-20T00:03:55;10.90;;;10.10;;
577;SDS011;275;48.492;9.214;2023-08-20T00:06:22;11.37;;;10.37;;
577;SDS011;275;48.492;9.214;2023-08-20T00:08:49;13.33;;;12.13;;
577;SDS011;275;48.492;9.214;2023-08-20T00:11:18;12.53;;;11.33;;
577;SDS011;275;48.492;9.214;2023-08-20T00:13:45;11.37;;;10.20;;
577;SDS011;275;48.492;9.214;2023-08-20T00:16:12;11.40;;;10.50;;
577;SDS011;275;48.492;9.214;2023-08-20T00:18:39;11.63;;;10.67;;
577;SDS011;275;48.492;9.214;2023-08-20T00:21:07;11.83;;;10.80;;
577;SDS011;275;48.492;9.214;2023-08-20T00:23:35;13.60;;;11.37;;
577;SDS011;275;48.492;9.214;2023-08-20T00:26:02;12.30;;;11.20;;
577;SDS011;275;48.492;9.214;2023-08-20T00:28:31;14.77;;;10.37;;
577;SDS011;275;48.492;9.214;2023-08-20T00:30:59;12.17;;;11.07;;
577;SDS011;275;48.492;9.214;2023-08-20T00:33:27;13.60;;;12.30;;
577;SDS011;275;48.492;9.214;2023-08-20T00:35:54;11.80;;;10.70;;
577;SDS011;275;48.492;9.214;2023-08-20T00:38:20;12.53;;;11.43;;
577;SDS011;275;48.492;9.214;2023-08-20T00:40:47;11.97;;;10.77;;
577;SDS011;275;48.492;9.214;2023-08-20T00:43:14;12.10;;;11.17;;
577;SDS011;275;48.492;9.214;2023-08-20T00:45:42;13.23;;;12.03;;
577;SDS011;275;48.492;9.214;2023-08-20T00:48:10;11.47;;;10.37;;
577;SDS011;275;48.492;9.214;2023-08-20T00:50:37;12.30;;;11.30;;
577;SDS011;275;48.492;9.214;2023-08-20T00:53:05;13.80;;;12.70;;
577;SDS011;275;48.492;9.214;2023-08-20T00:55:34;11.67;;;10.70;;
577;SDS011;275;48.492;9.214;2023-08-20T00:58:02;12.90;;;11.60;;
577;SDS011;275;48.492;9.214;2023-08-20T01:00:29;11.87;;;10.90;;
577;SDS011;275;48.492;9.214;2023-08-20T01:02:58;12.13;;;11.07;;
577;SDS011;275;48.492;9.214;2023-08-20T01:05:25;12.37;;;11.17;;
577;SDS011;275;48.492;9.214;2023-08-20T01:07:56;11.97;;;10.70;;
577;SDS011;275;48.492;9.214;2023-08-20T01:10:33;12.63;;;11.63;;
577;SDS011;275;48.492;9.214;2023-08-20T01:13:06;12.73;;;11.63;;
577;SDS011;275;48.492;9.214;2023-08-20T01:15:33;11.93;;;11.03;;
577;SDS011;275;48.492;9.214;2023-08-20T01:18:02;11.67;;;10.77;;
577;SDS011;275;48.492;9.214;2023-08-20T01:20:30;12.60;;;11.40;;
577;SDS011;275;48.492;9.214;2023-08-20T01:26:07;13.23;;;12.03;;
577;SDS011;275;48.492;9.214;2023-08-20T01:28:48;12.93;;;11.73;;
577;SDS011;275;48.492;9.214;2023-08-20T01:31:16;12.50;;;11.50;;
577;SDS011;275;48.492;9.214;2023-08-20T01:33:45;11.77;;;10.77;;
577;SDS011;275;48.492;9.214;2023-08-20T01:36:12;12.73;;;11.60;;
577;SDS011;275;48.492;9.214;2023-08-20T01:38:39;13.27;;;11.97;;
577;SDS011;275;48.492;9.214;2023-08-20T01:41:06;12.90;;;11.70;;
577;SDS011;275;48.492;9.214;2023-08-20T01:43:33;12.33;;;11.23;;
577;SDS011;275;48.492;9.214;2023-08-20T01:46:01;12.53;;;11.43;;
577;SDS011;275;48.492;9.214;2023-08-20T01:48:28;12.80;;;11.87;;
577;SDS011;275;48.492;9.214;2023-08-20T01:50:55;14.27;;;12.77;;
577;SDS011;275;48.492;9.214;2023-08-20T01:53:21;14.13;;;12.93;;
577;SDS011;275;48.492;9.214;2023-08-20T01:55:48;14.40;;;13.20;;
577;SDS011;275;48.492;9.214;2023-08-20T01:58:15;13.23;;;12.13;;
577;SDS011;275;48.492;9.214;2023-08-20T02:00:42;13.20;;;11.93;;
577;SDS011;275;48.492;9.214;2023-08-20T02:03:12;13.70;;;12.40;;
577;SDS011;275;48.492;9.214;2023-08-20T02:05:38;14.70;;;13.37;;
577;SDS011;275;48.492;9.214;2023-08-20T02:08:05;15.20;;;13.90;;
577;SDS011;275;48.492;9.214;2023-08-20T02:10:32;13.37;;;12.20;;
577;SDS011;275;48.492;9.214;2023-08-20T02:12:59;13.90;;;12.80;;
577;SDS011;275;48.492;9.214;2023-08-20T02:15:25;13.57;;;12.33;;
577;SDS011;275;48.492;9.214;2023-08-20T02:17:52;13.80;;;12.70;;
577;SDS011;275;48.492;9.214;2023-08-20T02:20:20;14.87;;;13.77;;
577;SDS011;275;48.492;9.214;2023-08-20T02:22:48;14.33;;;13.17;;
577;SDS011;275;48.492;9.214;2023-08-20T02:25:14;14.37;;;13.17;;
577;SDS011;275;48.492;9.214;2023-08-20T02:27:41;13.80;;;12.50;;
577;SDS011;275;48.492;9.214;2023-08-20T02:30:08;13.53;;;12.50;;
577;SDS011;275;48.492;9.214;2023-08-20T02:32:38;14.63;;;13.53;;
577;SDS011;275;48.492;9.214;2023-08-20T02:35:05;13.77;;;12.67;;
577;SDS011;275;48.492;9.214;2023-08-20T02:37:34;14.50;;;13.07;;
577;SDS011;275;48.492;9.214;2023-08-20T02:40:01;13.90;;;12.77;;
577;SDS011;275;48.492;9.214;2023-08-20T02:42:29;13.77;;;12.57;;
577;SDS011;275;48.492;9.214;2023-08-20T02:44:56;13.43;;;12.37;;
577;SDS011;275;48.492;9.214;2023-08-20T02:47:23;14.30;;;13.00;;
577;SDS011;275;48.492;9.214;2023-08-20T02:49:50;14.17;;;12.87;;
577;SDS011;275;48.492;9.214;2023-08-20T02:52:17;14.03;;;12.93;;
577;SDS011;275;48.492;9.214;2023-08-20T02:54:45;15.87;;;14.30;;
577;SDS011;275;48.492;9.214;2023-08-20T02:57:12;14.23;;;12.93;;
577;SDS011;275;48.492;9.214;2023-08-20T02:59:39;14.87;;;13.77;;
577;SDS011;275;48.492;9.214;2023-08-20T03:02:06;15.40;;;13.80;;
577;SDS011;275;48.492;9.214;2023-08-20T03:04:32;14.93;;;13.57;;
577;SDS011;275;48.492;9.214;2023-08-20T03:07:00;15.17;;;13.90;;
577;SDS011;275;48.492;9.214;2023-08-20T03:09:26;14.27;;;13.07;;
577;SDS011;275;48.492;9.214;2023-08-20T03:11:54;14.20;;;13.17;;
577;SDS011;275;48.492;9.214;2023-08-20T03:14:21;14.87;;;13.77;;
577;SDS011;275;48.492;9.214;2023-08-20T03:16:48;13.90;;;12.80;;
577;SDS011;275;48.492;9.214;2023-08-20T03:19:15;15.90;;;14.40;;
577;SDS011;275;48.492;9.214;2023-08-20T03:21:42;15.10;;;13.80;;
577;SDS011;275;48.492;9.214;2023-08-20T03:24:09;13.70;;;12.70;;
577;SDS011;275;48.492;9.214;2023-08-20T03:26:35;14.80;;;13.60;;
577;SDS011;275;48.492;9.214;2023-08-20T03:29:04;15.23;;;13.93;;
577;SDS011;275;48.492;9.214;2023-08-20T03:31:31;14.17;;;12.93;;
577;SDS011;275;48.492;9.214;2023-08-20T03:33:58;15.93;;;14.57;;
577;SDS011;275;48.492;9.214;2023-08-20T03:36:25;15.93;;;14.30;;
577;SDS011;275;48.492;9.214;2023-08-20T03:38:51;15.27;;;14.07;;
577;SDS011;275;48.492;9.214;2023-08-20T03:41:18;15.87;;;14.57;;
577;SDS011;275;48.492;9.214;2023-08-20T03:43:45;16.00;;;14.70;;
577;SDS011;275;48.492;9.214;2023-08-20T03:46:13;15.10;;;13.80;;
577;SDS011;275;48.492;9.214;2023-08-20T03:48:41;15.00;;;13.70;;
577;SDS011;275;48.492;9.214;2023-08-20T03:51:08;15.10;;;13.93;;
577;SDS011;275;48.492;9.214;2023-08-20T03:53:35;15.40;;;14.30;;
577;SDS011;275;48.492;9.214;2023-08-20T03:56:01;15.03;;;13.83;;
577;SDS011;275;48.492;9.214;2023-08-20T03:58:28;14.63;;;13.43;;
577;SDS011;275;48.492;9.214;2023-08-20T04:00:55;15.97;;;14.60;;
577;SDS011;275;48.492;9.214;2023-08-20T04:03:23;15.27;;;13.77;;
577;SDS011;275;48.492;9.214;2023-08-20T04:05:50;15.10;;;13.90;;
577;SDS011;275;48.492;9.214;2023-08-20T04:08:17;16.10;;;14.90;;
577;SDS011;275;48.492;9.214;2023-08-20T04:10:44;15.07;;;13.97;;
577;SDS011;275;48.492;9.214;2023-08-20T04:13:11;15.57;;;14.30;;
577;SDS011;275;48.492;9.214;2023-08-20T04:15:39;16.23;;;14.93;;
577;SDS011;275;48.492;9.214;2023-08-20T04:18:06;16.40;;;15.10;;
577;SDS011;275;48.492;9.214;2023-08-20T04:20:34;15.83;;;14.63;;
577;SDS011;275;48.492;9.214;2023-08-20T04:23:01;15.57;;;14.27;;
577;SDS011;275;48.492;9.214;2023-08-20T04:25:28;14.50;;;13.30;;
577;SDS011;275;48.492;9.214;2023-08-20T04:27:54;14.77;;;13.57;;
577;SDS011;275;48.492;9.214;2023-08-20T04:30:21;14.33;;;11.80;;
577;SDS011;275;48.492;9.214;2023-08-20T04:32:48;15.00;;;13.80;;
577;SDS011;275;48.492;9.214;2023-08-20T04:35:15;14.70;;;13.60;;
577;SDS011;275;48.492;9.214;2023-08-20T04:37:43;15.33;;;14.00;;
577;SDS011;275;48.492;9.214;2023-08-20T04:40:10;15.03;;;13.80;;
577;SDS011;275;48.492;9.214;2023-08-20T04:42:38;14.77;;;13.63;;
577;SDS011;275;48.492;9.214;2023-08-20T04:45:05;14.73;;;13.47;;
577;SDS011;275;48.492;9.214;2023-08-20T04:47:32;15.47;;;14.17;;
577;SDS011;275;48.492;9.214;2023-08-20T04:49:59;15.40;;;14.00;;
577;SDS011;275;48.492;9.214;2023-08-20T04:52:26;16.60;;;15.27;;
577;SDS011;275;48.492;9.214;2023-08-20T04:54:54;16.03;;;14.73;;
577;SDS011;275;48.492;9.214;2023-08-20T04:57:21;15.87;;;14.47;;
577;SDS011;275;48.492;9.214;2023-08-20T04:59:48;15.57;;;14.17;;
577;SDS011;275;48.492;9.214;2023-08-20T05:02:15;16.17;;;14.53;;
577;SDS011;275;48.492;9.214;2023-08-20T05:04:42;15.83;;;14.43;;
577;SDS011;275;48.492;9.214;2023-08-20T05:07:09;15.33;;;14.03;;
577;SDS011;275;48.492;9.214;2023-08-20T05:09:36;18.07;;;16.50;;
577;SDS011;275;48.492;9.214;2023-08-20T05:12:04;18.20;;;16.70;;
577;SDS011;275;48.492;9.214;2023-08-20T05:14:31;17.57;;;15.93;;
577;SDS011;275;48.492;9.214;2023-08-20T05:16:58;16.60;;;15.10;;
577;SDS011;275;48.492;9.214;2023-08-20T05:19:25;16.63;;;15.13;;
577;SDS011;275;48.492;9.214;2023-08-20T05:21:52;15.37;;;14.20;;
577;SDS011;275;48.492;9.214;2023-08-20T05:24:21;15.17;;;13.93;;
577;SDS011;275;48.492;9.214;2023-08-20T05:26:49;15.07;;;13.67;;
577;SDS011;275;48.492;9.214;2023-08-20T05:29:30;13.53;;;12.47;;
577;SDS011;275;48.492;9.214;2023-08-20T05:31:57;12.60;;;11.50;;
577;SDS011;275;48.492;9.214;2023-08-20T05:34:24;13.00;;;11.70;;
577;SDS011;275;48.492;9.214;2023-08-20T05:36:51;11.80;;;10.80;;
577;SDS011;275;48.492;9.214;2023-08-20T05:39:17;13.73;;;12.00;;
577;SDS011;275;48.492;9.214;2023-08-20T05:41:44;13.47;;;12.20;;
577;SDS011;275;48.492;9.214;2023-08-20T05:44:12;15.17;;;13.67;;
577;SDS011;275;48.492;9.214;2023-08-20T05:46:39;13.90;;;12.70;;
577;SDS011;275;48.492;9.214;2023-08-20T05:49:06;14.47;;;13.27;;
577;SDS011;275;48.492;9.214;2023-08-20T05:51:33;16.17;;;14.63;;
577;SDS011;275;48.492;9.214;2023-08-20T05:54:00;14.57;;;13.17;;
577;SDS011;275;48.492;9.214;2023-08-20T05:56:26;14.03;;;12.73;;
577;SDS011;275;48.492;9.214;2023-08-20T05:58:53;14.40;;;13.20;;
577;SDS011;275;48.492;9.214;2023-08-20T06:01:22;13.90;;;12.80;;
577;SDS011;275;48.492;9.214;2023-08-20T06:03:49;14.80;;;13.63;;
577;SDS011;275;48.492;9.214;2023-08-20T06:06:16;15.53;;;14.00;;
577;SDS011;275;48.492;9.214;2023-08-20T06:08:42;17.63;;;16.30;;
577;SDS011;275;48.492;9.214;2023-08-20T06:11:09;17.07;;;15.83;;
577;SDS011;275;48.492;9.214;2023-08-20T06:13:36;18.93;;;17.50;;
577;SDS011;275;48.492;9.214;2023-08-20T06:16:03;17.60;;;16.27;;
577;SDS011;275;48.492;9.214;2023-08-20T06:18:32;19.17;;;17.73;;
577;SDS011;275;48.492;9.214;2023-08-20T06:20:59;18.00;;;16.63;;
577;SDS011;275;48.492;9.214;2023-08-20T06:23:26;18.60;;;17.00;;
577;SDS011;275;48.492;9.214;2023-08-20T06:25:52;18.03;;;16.63;;
577;SDS011;275;48.492;9.214;2023-08-20T06:28:19;17.57;;;16.10;;
577;SDS011;275;48.492;9.214;2023-08-20T06:30:46;16.93;;;15.40;;
577;SDS011;275;48.492;9.214;2023-08-20T06:33:13;17.00;;;15.67;;
577;SDS011;275;48.492;9.214;2023-08-20T06:35:41;15.43;;;14.03;;
577;SDS011;275;48.492;9.214;2023-08-20T06:38:08;16.77;;;15.40;;
577;SDS011;275;48.492;9.214;2023-08-20T06:40:34;16.93;;;15.47;;
577;SDS011;275;48.492;9.214;2023-08-20T06:43:01;17.50;;;15.77;;
577;SDS011;275;48.492;9.214;2023-08-20T06:45:28;16.50;;;14.67;;
577;SDS011;275;48.492;9.214;2023-08-20T06:47:55;17.27;;;14.67;;
577;SDS011;275;48.492;9.214;2023-08-20T06:50:23;15.93;;;14.53;;
577;SDS011;275;48.492;9.214;2023-08-20T06:52:51;16.00;;;14.40;;
577;SDS011;275;48.492;9.214;2023-08-20T06:55:17;14.97;;;13.77;;
577;SDS011;275;48.492;9.214;2023-08-20T06:57:44;15.80;;;14.40;;
577;SDS011;275;48.492;9.214;2023-08-20T07:00:11;14.63;;;13.43;;
577;SDS011;275;48.492;9.214;2023-08-20T07:02:38;14.53;;;13.33;;
577;SDS011;275;48.492;9.214;2023-08-20T07:05:05;14.43;;;13.20;;
577;SDS011;275;48.492;9.214;2023-08-20T07:07:34;16.07;;;14.77;;
577;SDS011;275;48.492;9.214;2023-08-20T07:10:02;14.97;;;13.67;;
577;SDS011;275;48.492;9.214;2023-08-20T07:12:29;15.43;;;14.20;;
577;SDS011;275;48.492;9.214;2023-08-20T07:14:56;14.70;;;13.30;;
577;SDS011;275;48.492;9.214;2023-08-20T07:17:23;13.53;;;12.40;;
577;SDS011;275;48.492;9.214;2023-08-20T07:19:50;12.10;;;11.10;;
577;SDS011;275;48.492;9.214;2023-08-20T07:22:16;14.00;;;12.00;;
577;SDS011;275;48.492;9.214;2023-08-20T07:24:43;12.53;;;11.33;;
577;SDS011;275;48.492;9.214;2023-08-20T07:27:11;14.47;;;11.53;;
577;SDS011;275;48.492;9.214;2023-08-20T07:29:38;12.03;;;11.00;;
577;SDS011;275;48.492;9.214;2023-08-20T07:32:06;12.90;;;11.60;;
577;SDS011;275;48.492;9.214;2023-08-20T07:34:33;12.87;;;11.73;;
577;SDS011;275;48.492;9.214;2023-08-20T07:37:00;13.10;;;11.73;;
577;SDS011;275;48.492;9.214;2023-08-20T07:39:27;17.30;;;12.20;;
577;SDS011;275;48.492;9.214;2023-08-20T07:41:54;12.00;;;10.90;;
577;SDS011;275;48.492;9.214;2023-08-20T07:44:22;10.13;;;9.23;;
577;SDS011;275;48.492;9.214;2023-08-20T07:46:49;11.03;;;9.93;;
577;SDS011;275;48.492;9.214;2023-08-20T07:49:16;11.20;;;10.10;;
577;SDS011;275;48.492;9.214;2023-08-20T07:51:43;12.60;;;11.40;;
577;SDS011;275;48.492;9.214;2023-08-20T07:54:09;11.10;;;7.93;;
577;SDS011;275;48.492;9.214;2023-08-20T07:56:37;11.47;;;10.43;;
577;SDS011;275;48.492;9.214;2023-08-20T07:59:03;11.33;;;10.03;;
577;SDS011;275;48.492;9.214;2023-08-20T08:01:32;9.70;;;8.83;;
577;SDS011;275;48.492;9.214;2023-08-20T08:03:58;9.43;;;8.40;;
577;SDS011;275;48.492;9.214;2023-08-20T08:06:25;10.97;;;9.97;;
577;SDS011;275;48.492;9.214;2023-08-20T08:08:52;11.03;;;9.93;;
577;SDS011;275;48.492;9.214;2023-08-20T08:11:19;15.23;;;10.23;;
577;SDS011;275;48.492;9.214;2023-08-20T08:13:46;10.80;;;9.90;;
577;SDS011;275;48.492;9.214;2023-08-20T08:16:12;12.43;;;11.40;;
577;SDS011;275;48.492;9.214;2023-08-20T08:18:41;11.57;;;10.57;;
577;SDS011;275;48.492;9.214;2023-08-20T08:21:07;13.10;;;12.00;;
577;SDS011;275;48.492;9.214;2023-08-20T08:23:34;11.30;;;10.20;;
577;SDS011;275;48.492;9.214;2023-08-20T08:26:01;10.70;;;9.60;;
577;SDS011;275;48.492;9.214;2023-08-20T08:28:28;11.37;;;9.43;;
577;SDS011;275;48.492;9.214;2023-08-20T08:30:55;10.73;;;9.77;;
577;SDS011;275;48.492;9.214;2023-08-20T08:33:22;11.53;;;10.10;;
577;SDS011;275;48.492;9.214;2023-08-20T08:35:50;11.57;;;10.47;;
577;SDS011;275;48.492;9.214;2023-08-20T08:38:17;11.33;;;10.33;;
577;SDS011;275;48.492;9.214;2023-08-20T08:40:44;9.93;;;9.03;;
577;SDS011;275;48.492;9.214;2023-08-20T08:43:11;10.57;;;9.57;;
577;SDS011;275;48.492;9.214;2023-08-20T08:45:42;10.13;;;8.87;;
577;SDS011;275;48.492;9.214;2023-08-20T08:48:11;10.47;;;9.67;;
577;SDS011;275;48.492;9.214;2023-08-20T08:50:38;8.83;;;7.93;;
577;SDS011;275;48.492;9.214;2023-08-20T08:53:07;10.50;;;9.50;;
577;SDS011;275;48.492;9.214;2023-08-20T08:55:36;9.33;;;8.50;;
577;SDS011;275;48.492;9.214;2023-08-20T08:58:03;9.40;;;8.50;;
577;SDS011;275;48.492;9.214;2023-08-20T09:00:30;9.37;;;7.80;;
577;SDS011;275;48.492;9.214;2023-08-20T09:02:57;9.00;;;8.20;;
577;SDS011;275;48.492;9.214;2023-08-20T09:05:24;8.83;;;7.93;;
577;SDS011;275;48.492;9.214;2023-08-20T09:07:55;9.23;;;8.37;;
577;SDS011;275;48.492;9.214;2023-08-20T09:10:26;9.03;;;8.23;;
577;SDS011;275;48.492;9.214;2023-08-20T09:12:54;8.67;;;7.97;;
577;SDS011;275;48.492;9.214;2023-08-20T09:15:22;10.10;;;9.10;;
577;SDS011;275;48.492;9.214;2023-08-20T09:17:59;10.43;;;9.43;;
577;SDS011;275;48.492;9.214;2023-08-20T09:20:33;9.00;;;8.30;;
577;SDS011;275;48.492;9.214;2023-08-20T09:23:01;8.60;;;7.90;;
577;SDS011;275;48.492;9.214;2023-08-20T09:25:29;9.60;;;8.70;;
577;SDS011;275;48.492;9.214;2023-08-20T09:27:56;8.27;;;7.47;;
577;SDS011;275;48.492;9.214;2023-08-20T09:30:23;11.10;;;7.97;;
577;SDS011;275;48.492;9.214;2023-08-20T09:33:02;9.07;;;8.27;;
577;SDS011;275;48.492;9.214;2023-08-20T09:35:29;9.17;;;8.30;;
577;SDS011;275;48.492;9.214;2023-08-20T09:37:58;8.73;;;7.80;;
577;SDS011;275;48.492;9.214;2023-08-20T09:40:26;9.07;;;7.97;;
577;SDS011;275;48.492;9.214;2023-08-20T09:42:55;8.03;;;7.23;;
577;SDS011;275;48.492;9.214;2023-08-20T09:45:22;8.03;;;7.33;;
577;SDS011;275;48.492;9.214;2023-08-20T09:47:54;8.13;;;7.40;;
577;SDS011;275;48.492;9.214;2023-08-20T09:50:22;7.70;;;7.00;;
577;SDS011;275;48.492;9.214;2023-08-20T09:52:53;9.90;;;7.10;;
577;SDS011;275;48.492;9.214;2023-08-20T09:55:26;10.47;;;7.50;;
577;SDS011;275;48.492;9.214;2023-08-20T09:57:58;10.53;;;8.20;;
577;SDS011;275;48.492;9.214;2023-08-20T10:00:27;7.63;;;7.03;;
577;SDS011;275;48.492;9.214;2023-08-20T10:02:54;8.30;;;6.37;;
577;SDS011;275;48.492;9.214;2023-08-20T10:05:22;8.37;;;7.57;;
577;SDS011;275;48.492;9.214;2023-08-20T10:07:49;7.90;;;7.10;;
577;SDS011;275;48.492;9.214;2023-08-20T10:10:17;8.10;;;7.27;;
577;SDS011;275;48.492;9.214;2023-08-20T10:12:45;7.60;;;6.90;;
577;SDS011;275;48.492;9.214;2023-08-20T10:15:13;7.23;;;6.60;;
577;SDS011;275;48.492;9.214;2023-08-20T10:17:41;8.60;;;6.20;;
577;SDS011;275;48.492;9.214;2023-08-20T10:20:12;7.37;;;6.67;;
577;SDS011;275;48.492;9.214;2023-08-20T10:22:40;7.00;;;6.30;;
577;SDS011;275;48.492;9.214;2023-08-20T10:25:08;7.50;;;6.70;;
577;SDS011;275;48.492;9.214;2023-08-20T10:27:36;7.80;;;6.90;;
577;SDS011;275;48.492;9.214;2023-08-20T10:30:09;7.00;;;6.33;;
577;SDS011;275;48.492;9.214;2023-08-20T10:32:44;7.97;;;6.63;;
577;SDS011;275;48.492;9.214;2023-08-20T10:35:12;8.13;;;7.20;;
577;SDS011;275;48.492;9.214;2023-08-20T10:43:31;7.17;;;6.47;;
577;SDS011;275;48.492;9.214;2023-08-20T10:46:04;7.77;;;6.97;;
577;SDS011;275;48.492;9.214;2023-08-20T10:48:33;7.67;;;6.97;;
577;SDS011;275;48.492;9.214;2023-08-20T10:51:11;7.83;;;7.03;;
577;SDS011;275;48.492;9.214;2023-08-20T10:53:39;9.87;;;6.73;;
577;SDS011;275;48.492;9.214;2023-08-20T10:56:14;10.03;;;6.77;;
577;SDS011;275;48.492;9.214;2023-08-20T10:58:43;6.70;;;6.00;;
577;SDS011;275;48.492;9.214;2023-08-20T11:01:21;7.63;;;6.33;;
577;SDS011;275;48.492;9.214;2023-08-20T11:03:49;6.83;;;6.20;;
577;SDS011;275;48.492;9.214;2023-08-20T11:06:17;6.43;;;5.70;;
577;SDS011;275;48.492;9.214;2023-08-20T11:08:44;12.50;;;6.70;;
577;SDS011;275;48.492;9.214;2023-08-20T11:11:12;7.10;;;6.43;;
577;SDS011;275;48.492;9.214;2023-08-20T11:13:39;6.77;;;6.07;;
577;SDS011;275;48.492;9.214;2023-08-20T11:16:07;8.33;;;6.87;;
577;SDS011;275;48.492;9.214;2023-08-20T11:18:36;6.93;;;6.20;;
577;SDS011;275;48.492;9.214;2023-08-20T11:21:03;10.13;;;6.50;;
577;SDS011;275;48.492;9.214;2023-08-20T11:23:30;7.37;;;6.10;;
577;SDS011;275;48.492;9.214;2023-08-20T11:25:57;6.80;;;5.40;;
577;SDS011;275;48.492;9.214;2023-08-20T11:28:25;9.13;;;7.40;;
577;SDS011;275;48.492;9.214;2023-08-20T11:30:53;7.77;;;6.70;;
577;SDS011;275;48.492;9.214;2023-08-20T11:33:21;7.77;;;6.70;;
577;SDS011;275;48.492;9.214;2023-08-20T11:35:49;8.07;;;6.33;;
577;SDS011;275;48.492;9.214;2023-08-20T11:38:17;10.27;;;6.97;;
577;SDS011;275;48.492;9.214;2023-08-20T11:40:45;11.70;;;7.63;;
577;SDS011;275;48.492;9.214;2023-08-20T11:43:12;10.07;;;8.63;;
577;SDS011;275;48.492;9.214;2023-08-20T11:45:46;8.87;;;7.90;;
577;SDS011;275;48.492;9.214;2023-08-20T11:48:14;8.80;;;8.00;;
577;SDS011;275;48.492;9.214;2023-08-20T11:50:41;10.90;;;7.73;;
577;SDS011;275;48.492;9.214;2023-08-20T11:53:10;8.17;;;7.37;;
577;SDS011;275;48.492;9.214;2023-08-20T11:55:38;11.50;;;7.57;;
577;SDS011;275;48.492;9.214;2023-08-20T11:58:08;9.40;;;7.10;;
577;SDS011;275;48.492;9.214;2023-08-20T12:00:37;8.17;;;7.30;;
577;SDS011;275;48.492;9.214;2023-08-20T12:03:04;9.63;;;7.30;;
577;SDS011;275;48.492;9.214;2023-08-20T12:05:31;7.40;;;6.70;;
577;SDS011;275;48.492;9.214;2023-08-20T12:07:59;10.20;;;7.20;;
577;SDS011;275;48.492;9.214;2023-08-20T12:10:28;8.90;;;7.10;;
577;SDS011;275;48.492;9.214;2023-08-20T12:12:56;9.00;;;6.40;;
577;SDS011;275;48.492;9.214;2023-08-20T12:15:24;8.13;;;7.33;;
577;SDS011;275;48.492;9.214;2023-08-20T12:17:55;8.30;;;6.53;;
577;SDS011;275;48.492;9.214;2023-08-20T12:20:26;7.10;;;6.40;;
577;SDS011;275;48.492;9.214;2023-08-20T12:22:54;6.43;;;5.80;;
577;SDS011;275;48.492;9.214;2023-08-20T12:25:22;6.87;;;6.27;;
577;SDS011;275;48.492;9.214;2023-08-20T12:27:51;7.83;;;6.63;;
577;SDS011;275;48.492;9.214;2023-08-20T12:30:17;8.47;;;6.10;;
577;SDS011;275;48.492;9.214;2023-08-20T12:32:45;7.07;;;6.37;;
577;SDS011;275;48.492;9.214;2023-08-20T12:35:12;7.47;;;6.20;;
577;SDS011;275;48.492;9.214;2023-08-20T12:37:39;9.47;;;6.33;;
577;SDS011;275;48.492;9.214;2023-08-20T12:40:06;9.30;;;6.57;;
577;SDS011;275;48.492;9.214;2023-08-20T12:42:35;6.70;;;5.83;;
577;SDS011;275;48.492;9.214;2023-08-20T12:45:05;8.70;;;5.97;;
577;SDS011;275;48.492;9.214;2023-08-20T12:47:32;6.93;;;5.90;;
577;SDS011;275;48.492;9.214;2023-08-20T12:49:59;6.10;;;5.60;;
577;SDS011;275;48.492;9.214;2023-08-20T12:52:26;6.30;;;5.70;;
577;SDS011;275;48.492;9.214;2023-08-20T12:54:53;8.43;;;6.50;;
577;SDS011;275;48.492;9.214;2023-08-20T12:57:20;7.53;;;6.23;;
577;SDS011;275;48.492;9.214;2023-08-20T12:59:46;9.23;;;5.83;;
577;SDS011;275;48.492;9.214;2023-08-20T13:02:15;8.70;;;6.67;;
577;SDS011;275;48.492;9.214;2023-08-20T13:04:42;8.00;;;5.87;;
577;SDS011;275;48.492;9.214;2023-08-20T13:07:09;7.33;;;5.60;;
577;SDS011;275;48.492;9.214;2023-08-20T13:09:36;6.10;;;5.50;;
577;SDS011;275;48.492;9.214;2023-08-20T13:12:04;9.00;;;5.80;;
577;SDS011;275;48.492;9.214;2023-08-20T13:14:34;6.67;;;6.00;;
577;SDS011;275;48.492;9.214;2023-08-20T13:17:01;7.97;;;6.03;;
577;SDS011;275;48.492;9.214;2023-08-20T13:19:30;8.50;;;6.57;;
577;SDS011;275;48.492;9.214;2023-08-20T13:21:57;8.00;;;6.40;;
577;SDS011;275;48.492;9.214;2023-08-20T13:24:23;7.47;;;6.70;;
577;SDS011;275;48.492;9.214;2023-08-20T13:26:51;10.63;;;7.03;;
577;SDS011;275;48.492;9.214;2023-08-20T13:29:18;8.80;;;6.80;;
577;SDS011;275;48.492;9.214;2023-08-20T13:31:44;9.70;;;7.90;;
577;SDS011;275;48.492;9.214;2023-08-20T13:34:11;8.10;;;7.30;;
577;SDS011;275;48.492;9.214;2023-08-20T13:36:39;12.00;;;7.70;;
577;SDS011;275;48.492;9.214;2023-08-20T13:39:06;8.83;;;7.97;;
577;SDS011;275;48.492;9.214;2023-08-20T13:41:33;9.17;;;8.20;;
577;SDS011;275;48.492;9.214;2023-08-20T13:44:00;8.73;;;7.40;;
577;SDS011;275;48.492;9.214;2023-08-20T13:46:26;9.43;;;8.53;;
577;SDS011;275;48.492;9.214;2023-08-20T13:48:54;9.50;;;8.47;;
577;SDS011;275;48.492;9.214;2023-08-20T13:51:21;9.03;;;8.17;;
577;SDS011;275;48.492;9.214;2023-08-20T13:53:49;7.97;;;7.17;;
577;SDS011;275;48.492;9.214;2023-08-20T13:56:15;10.00;;;8.33;;
577;SDS011;275;48.492;9.214;2023-08-20T13:58:42;9.93;;;7.90;;
577;SDS011;275;48.492;9.214;2023-08-20T14:01:09;9.30;;;8.20;;
577;SDS011;275;48.492;9.214;2023-08-20T14:03:36;8.87;;;7.87;;
577;SDS011;275;48.492;9.214;2023-08-20T14:06:03;8.97;;;7.20;;
577;SDS011;275;48.492;9.214;2023-08-20T14:08:30;11.20;;;7.90;;
577;SDS011;275;48.492;9.214;2023-08-20T14:10:58;11.03;;;8.47;;
577;SDS011;275;48.492;9.214;2023-08-20T14:13:25;9.07;;;7.67;;
577;SDS011;275;48.492;9.214;2023-08-20T14:15:52;8.67;;;7.77;;
577;SDS011;275;48.492;9.214;2023-08-20T14:18:18;9.83;;;8.93;;
577;SDS011;275;48.492;9.214;2023-08-20T14:20:46;9.67;;;8.43;;
577;SDS011;275;48.492;9.214;2023-08-20T14:23:12;7.80;;;7.10;;
577;SDS011;275;48.492;9.214;2023-08-20T14:25:39;8.93;;;8.13;;
577;SDS011;275;48.492;9.214;2023-08-20T14:28:08;11.50;;;8.27;;
577;SDS011;275;48.492;9.214;2023-08-20T14:30:35;9.77;;;7.87;;
577;SDS011;275;48.492;9.214;2023-08-20T14:33:02;9.23;;;7.70;;
577;SDS011;275;48.492;9.214;2023-08-20T14:35:30;8.20;;;7.40;;
577;SDS011;275;48.492;9.214;2023-08-20T14:37:57;8.30;;;7.50;;
577;SDS011;275;48.492;9.214;2023-08-20T14:40:24;9.60;;;8.37;;
577;SDS011;275;48.492;9.214;2023-08-20T14:42:50;9.00;;;8.20;;
577;SDS011;275;48.492;9.214;2023-08-20T14:45:19;9.67;;;7.97;;
577;SDS011;275;48.492;9.214;2023-08-20T14:47:46;9.20;;;8.30;;
577;SDS011;275;48.492;9.214;2023-08-20T14:50:13;9.23;;;8.33;;
577;SDS011;275;48.492;9.214;2023-08-20T14:52:40;10.13;;;8.33;;
577;SDS011;275;48.492;9.214;2023-08-20T14:55:06;10.83;;;8.10;;
577;SDS011;275;48.492;9.214;2023-08-20T14:57:34;9.07;;;8.17;;
577;SDS011;275;48.492;9.214;2023-08-20T15:00:03;8.83;;;7.97;;
577;SDS011;275;48.492;9.214;2023-08-20T15:02:35;8.80;;;7.93;;
577;SDS011;275;48.492;9.214;2023-08-20T15:05:01;8.73;;;7.90;;
577;SDS011;275;48.492;9.214;2023-08-20T15:07:28;10.23;;;8.03;;
577;SDS011;275;48.492;9.214;2023-08-20T15:09:55;9.13;;;8.23;;
577;SDS011;275;48.492;9.214;2023-08-20T15:12:22;8.33;;;7.47;;
577;SDS011;275;48.492;9.214;2023-08-20T15:14:49;11.80;;;8.60;;
577;SDS011;275;48.492;9.214;2023-08-20T15:17:16;10.03;;;8.17;;
577;SDS011;275;48.492;9.214;2023-08-20T15:19:44;10.10;;;8.57;;
577;SDS011;275;48.492;9.214;2023-08-20T15:24:39;9.43;;;8.20;;
577;SDS011;275;48.492;9.214;2023-08-20T15:27:06;11.50;;;8.87;;
577;SDS011;275;48.492;9.214;2023-08-20T15:29:32;9.70;;;8.87;;
577;SDS011;275;48.492;9.214;2023-08-20T15:31:59;9.50;;;8.43;;
577;SDS011;275;48.492;9.214;2023-08-20T15:34:26;10.33;;;9.10;;
577;SDS011;275;48.492;9.214;2023-08-20T15:36:54;9.70;;;8.90;;
577;SDS011;275;48.492;9.214;2023-08-20T15:39:21;12.27;;;9.87;;
577;SDS011;275;48.492;9.214;2023-08-20T15:41:48;10.00;;;9.10;;